Time;durP1;ratioP1;P1;durP2;ratioP2;P2;SDS_P1;SDS_P2;PMS_P1;PMS_P2;Temp;Humidity;BMP_temperature;BMP_pressure;BME280_temperature;BME280_humidity;BME280_pressure;Samples;Min_cycle;Max_cycle;Signal;HPM_P1;HPM_P2
2023/10/19 00:00:56;;;;;;;25.10;18.30;;;;;;;0.83;75.52;96641.46;107492;1248;96505;-79
2023/10/19 00:03:37;;;;;;;25.10;16.90;;;;;;;0.84;75.52;96631.57;107136;1244;96729;-78
2023/10/19 00:06:05;;;;;;;21.00;15.30;;;;;;;0.86;75.48;96631.10;107586;1250;96574;-79
2023/10/19 00:08:41;;;;;;;21.30;15.80;;;;;;;0.87;75.43;96629.30;107435;1243;96785;-79
2023/10/19 00:11:09;;;;;;;21.00;14.70;;;;;;;0.85;75.37;96626.98;107499;1242;101598;-80
2023/10/19 00:13:37;;;;;;;19.70;15.30;;;;;;;0.85;75.46;96621.38;107362;1244;100093;-78
2023/10/19 00:16:11;;;;;;;21.50;15.20;;;;;;;0.86;75.58;96619.08;107518;1244;97079;-79
2023/10/19 00:18:42;;;;;;;20.30;14.50;;;;;;;0.88;75.65;96615.52;107354;1245;97180;-78
2023/10/19 00:21:19;;;;;;;17.40;14.30;;;;;;;0.86;75.71;96608.25;107227;1251;102278;-79
2023/10/19 00:23:47;;;;;;;18.70;13.90;;;;;;;0.85;75.72;96606.96;107526;1243;101405;-79
2023/10/19 00:26:17;;;;;;;19.90;14.80;;;;;;;0.83;75.80;96602.44;107521;1241;97432;-79
2023/10/19 00:28:45;;;;;;;23.30;17.10;;;;;;;0.78;75.82;96596.23;107474;1250;96570;-73
2023/10/19 00:31:15;;;;;;;19.70;16.20;;;;;;;0.73;75.87;96596.30;107577;1241;97365;-79
2023/10/19 00:33:41;;;;;;;24.70;17.60;;;;;;;0.69;75.99;96595.33;107484;1248;101094;-79
2023/10/19 00:36:12;;;;;;;19.40;15.20;;;;;;;0.67;76.11;96594.99;107502;1251;97484;-80
2023/10/19 00:38:47;;;;;;;21.10;15.50;;;;;;;0.67;76.29;96596.83;106998;1247;100136;-79
2023/10/19 00:41:20;;;;;;;22.90;14.90;;;;;;;0.65;76.37;96593.80;107490;1242;97749;-79
2023/10/19 00:43:49;;;;;;;19.80;15.20;;;;;;;0.69;76.36;96589.88;107552;1245;96996;-79
2023/10/19 00:46:20;;;;;;;21.80;15.20;;;;;;;0.71;76.43;96593.36;107472;1249;101189;-80
2023/10/19 00:48:53;;;;;;;21.50;16.00;;;;;;;0.75;76.45;96585.34;107445;1249;101197;-79
2023/10/19 00:51:40;;;;;;;19.60;13.80;;;;;;;0.77;76.29;96580.49;107539;1250;99446;-78
2023/10/19 00:54:16;;;;;;;18.50;14.30;;;;;;;0.78;76.26;96571.52;107487;1243;96929;-80
2023/10/19 00:56:48;;;;;;;19.30;13.90;;;;;;;0.75;76.29;96569.14;107539;1241;97104;-80
2023/10/19 00:59:23;;;;;;;;;;;;;;;0.74;76.39;96564.65;107407;1252;101129;-80
2023/10/19 01:01:54;;;;;;;18.50;13.10;;;;;;;0.72;76.56;96556.58;107560;1243;101213;-79
2023/10/19 01:04:22;;;;;;;18.20;13.50;;;;;;;0.73;76.55;96554.86;107565;1241;98947;-80
2023/10/19 01:07:04;;;;;;;17.50;14.20;;;;;;;0.73;76.55;96551.67;107296;1252;96717;-80
2023/10/19 01:09:35;;;;;;;18.40;13.30;;;;;;;0.75;76.35;96550.58;107359;1252;97689;-80
2023/10/19 01:12:21;;;;;;;16.80;13.30;;;;;;;0.74;76.35;96545.33;107555;1252;102034;-79
2023/10/19 01:15:16;;;;;;;18.30;12.70;;;;;;;0.75;76.39;96536.27;107488;1243;101148;-79
2023/10/19 01:17:52;;;;;;;17.90;12.90;;;;;;;0.74;76.40;96528.16;107356;1243;100087;-79
2023/10/19 01:20:33;;;;;;;15.30;11.70;;;;;;;0.72;76.40;96528.27;107628;1241;97487;-79
2023/10/19 01:23:20;;;;;;;15.70;12.40;;;;;;;0.65;76.47;96525.60;106915;1247;97454;-78
2023/10/19 01:25:50;;;;;;;16.30;11.80;;;;;;;0.61;76.55;96517.83;107287;1248;101112;-78
2023/10/19 01:28:17;;;;;;;21.50;13.50;;;;;;;0.57;76.66;96509.58;107086;1247;101498;-79
2023/10/19 01:30:51;;;;;;;23.10;15.20;;;;;;;0.58;76.70;96504.73;107106;1249;98042;-78
2023/10/19 01:33:18;;;;;;;23.10;15.20;;;;;;;0.58;76.73;96503.11;107157;1254;97477;-79
2023/10/19 01:38:35;;;;;;;17.70;12.90;;;;;;;0.62;76.87;96496.23;107348;1242;102403;-79
2023/10/19 01:41:06;;;;;;;22.90;14.00;;;;;;;0.63;76.84;96493.71;107324;1254;97576;-79
2023/10/19 01:43:33;;;;;;;21.70;14.10;;;;;;;0.58;76.80;96487.66;106947;1245;98875;-79
2023/10/19 01:46:04;;;;;;;24.80;15.50;;;;;;;0.56;76.84;96485.05;107001;1248;96623;-73
2023/10/19 01:48:33;;;;;;;22.10;15.20;;;;;;;0.54;76.87;96483.02;106953;1246;96901;-73
2023/10/19 01:51:04;;;;;;;24.30;15.30;;;;;;;0.55;76.98;96474.36;107105;1253;102231;-73
2023/10/19 01:53:33;;;;;;;23.10;14.20;;;;;;;0.54;77.01;96470.74;106984;1248;101468;-74
2023/10/19 01:55:59;;;;;;;21.80;13.70;;;;;;;0.50;77.00;96469.05;107615;1241;99935;-73
2023/10/19 01:58:25;;;;;;;19.00;13.20;;;;;;;0.49;77.18;96471.95;107505;1247;97332;-73
2023/10/19 02:00:55;;;;;;;19.70;13.00;;;;;;;0.47;77.26;96465.43;107596;1252;97057;-78
2023/10/19 02:03:24;;;;;;;22.10;13.00;;;;;;;0.47;77.35;96466.27;107573;1250;96549;-78
2023/10/19 02:06:16;;;;;;;21.30;13.70;;;;;;;0.50;77.51;96461.86;107266;1244;101405;-79
2023/10/19 02:09:00;;;;;;;21.90;13.90;;;;;;;0.54;77.52;96462.27;107586;1248;99867;-79
2023/10/19 02:11:28;;;;;;;21.00;13.00;;;;;;;0.56;77.48;96459.74;107385;1246;97999;-79
2023/10/19 02:13:59;;;;;;;20.10;13.10;;;;;;;0.58;77.46;96453.71;107376;1251;96650;-79
2023/10/19 02:16:29;;;;;;;21.50;12.90;;;;;;;0.62;77.44;96443.35;107587;1241;101089;-79
2023/10/19 02:18:56;;;;;;;21.90;12.60;;;;;;;0.64;77.28;96443.97;107482;1250;101434;-79
2023/10/19 02:21:27;;;;;;;20.80;13.00;;;;;;;0.62;77.19;96442.91;107517;1250;96558;-79
2023/10/19 02:23:53;;;;;;;19.30;14.50;;;;;;;0.58;77.24;96439.66;107592;1252;96601;-74
2023/10/19 02:26:22;;;;;;;23.20;14.30;;;;;;;0.54;77.21;96440.53;107392;1243;97091;-79
2023/10/19 02:28:52;;;;;;;17.50;12.20;;;;;;;0.50;77.14;96441.75;107613;1250;101987;-80
2023/10/19 02:31:21;;;;;;;17.50;11.70;;;;;;;0.49;77.29;96440.18;107386;1243;101340;-78
2023/10/19 02:33:51;;;;;;;18.60;11.70;;;;;;;0.49;77.41;96430.59;107337;1244;100043;-79
2023/10/19 02:36:20;;;;;;;16.50;11.30;;;;;;;0.48;77.37;96426.13;107063;1244;97113;-79
2023/10/19 02:38:48;;;;;;;16.90;10.90;;;;;;;0.45;77.35;96423.65;107319;1242;97059;-78
2023/10/19 02:41:17;;;;;;;16.00;10.60;;;;;;;0.46;77.45;96414.89;107651;1241;102378;-79
2023/10/19 02:43:47;;;;;;;20.90;10.70;;;;;;;0.49;77.60;96410.88;107184;1252;101242;-75
2023/10/19 02:46:14;;;;;;;15.40;10.60;;;;;;;0.47;77.46;96404.92;107231;1244;99743;-75
2023/10/19 02:48:44;;;;;;;17.50;11.70;;;;;;;0.41;77.50;96400.93;107293;1244;96972;-75
2023/10/19 02:51:13;;;;;;;18.80;11.90;;;;;;;0.37;77.49;96397.48;107524;1252;97492;-74
2023/10/19 02:53:40;;;;;;;15.00;11.00;;;;;;;0.36;77.69;96398.05;107546;1241;102020;-75
2023/10/19 02:56:12;;;;;;;13.50;10.50;;;;;;;0.39;77.72;96393.77;107602;1250;97824;-74
2023/10/19 02:58:48;;;;;;;15.20;11.20;;;;;;;0.34;77.65;96391.90;107409;1252;99855;-75
2023/10/19 03:01:21;;;;;;;16.30;10.70;;;;;;;0.33;77.66;96391.75;107362;1238;96983;-78
2023/10/19 03:03:53;;;;;;;14.20;10.90;;;;;;;0.32;77.70;96394.10;107363;1248;97445;-79
2023/10/19 03:06:25;;;;;;;15.30;11.50;;;;;;;0.35;77.79;96391.14;107577;1245;101993;-79
2023/10/19 03:08:57;;;;;;;15.00;10.20;;;;;;;0.39;77.90;96390.58;107572;1245;100376;-78
2023/10/19 03:11:24;;;;;;;;;;;;;;;0.40;77.86;96383.30;107391;1252;100030;-79
2023/10/19 03:13:51;;;;;;;13.60;9.80;;;;;;;0.37;77.94;96381.90;107560;1248;97482;-78
2023/10/19 03:16:20;;;;;;;13.70;9.50;;;;;;;0.34;77.91;96377.48;107266;1244;97522;-74
2023/10/19 03:18:47;;;;;;;12.10;9.90;;;;;;;0.35;77.91;96373.05;107581;1248;101192;-74
2023/10/19 03:21:14;;;;;;;10.90;9.20;;;;;;;0.38;78.09;96371.33;107360;1244;96715;-74
2023/10/19 03:23:40;;;;;;;12.30;9.80;;;;;;;0.41;78.08;96370.13;107202;1244;96642;-78
2023/10/19 03:26:30;;;;;;;14.20;9.70;;;;;;;0.44;78.28;96362.20;107635;1250;97138;-78
2023/10/19 03:29:13;;;;;;;13.80;10.80;;;;;;;0.48;78.28;96352.91;107616;1238;97131;-78
2023/10/19 03:31:43;;;;;;;19.30;12.00;;;;;;;0.46;78.32;96345.66;107464;1249;101170;-74
2023/10/19 03:34:12;;;;;;;16.20;11.40;;;;;;;0.50;78.55;96342.77;107671;1242;101221;-74
2023/10/19 03:36:39;;;;;;;13.50;11.30;;;;;;;0.54;78.56;96339.39;107642;1250;98890;-74
2023/10/19 03:39:12;;;;;;;14.80;10.70;;;;;;;0.60;78.64;96338.33;107548;1249;97858;-74
2023/10/19 03:41:42;;;;;;;17.50;10.90;;;;;;;0.68;78.73;96333.04;107575;1241;97049;-79
2023/10/19 03:44:16;;;;;;;16.30;11.10;;;;;;;0.74;78.80;96332.66;107604;1241;102322;-78
2023/10/19 03:46:52;;;;;;;14.70;11.00;;;;;;;0.78;78.71;96329.74;107537;1241;100299;-79
2023/10/19 03:49:20;;;;;;;15.90;11.10;;;;;;;0.81;78.76;96317.31;107590;1240;100034;-79
2023/10/19 03:51:58;;;;;;;14.40;10.80;;;;;;;0.85;78.75;96307.02;107111;1247;97812;-78
2023/10/19 03:54:27;;;;;;;16.00;11.10;;;;;;;0.87;78.74;96303.54;107617;1243;97509;-78
2023/10/19 03:56:55;;;;;;;13.40;9.90;;;;;;;0.90;78.72;96304.98;107587;1250;101110;-79
2023/10/19 03:59:22;;;;;;;15.70;11.50;;;;;;;0.92;78.73;96303.15;107602;1241;101257;-78
2023/10/19 04:01:48;;;;;;;13.20;10.20;;;;;;;0.93;78.70;96299.26;107856;1236;171263;-74
2023/10/19 04:04:16;;;;;;;17.80;10.80;;;;;;;0.92;78.67;96287.77;107889;1236;96567;-73
2023/10/19 04:06:47;;;;;;;18.10;12.40;;;;;;;0.90;78.68;96282.70;107965;1244;97443;-74
2023/10/19 04:09:17;;;;;;;22.30;12.90;;;;;;;0.89;78.68;96283.46;107665;1247;102030;-74
2023/10/19 04:11:51;;;;;;;28.40;15.20;;;;;;;0.88;78.64;96278.13;107685;1239;100022;-74
2023/10/19 04:14:18;;;;;;;42.20;26.30;;;;;;;0.84;78.61;96275.77;107565;1238;100012;-74
2023/10/19 04:16:44;;;;;;;41.90;26.20;;;;;;;0.82;78.69;96275.84;107773;1239;96625;-74
2023/10/19 04:19:11;;;;;;;36.10;24.40;;;;;;;0.83;78.70;96271.48;107957;1237;97466;-74
2023/10/19 04:21:38;;;;;;;75.80;48.50;;;;;;;0.81;78.62;96269.94;107852;1237;96553;-73
2023/10/19 04:24:09;;;;;;;70.90;46.10;;;;;;;0.82;78.64;96264.08;107987;1238;96914;-74
2023/10/19 04:26:37;;;;;;;57.30;34.80;;;;;;;0.81;78.62;96259.80;107860;1240;99908;-74
2023/10/19 04:29:09;;;;;;;43.00;28.90;;;;;;;0.84;78.63;96263.94;107905;1240;96614;-74
2023/10/19 04:31:37;;;;;;;;;;;;;;;0.85;78.60;96269.02;107808;1240;97171;-74
2023/10/19 04:34:07;;;;;;;24.90;17.80;;;;;;;0.83;78.63;96265.48;107944;1241;97849;-74
2023/10/19 04:36:34;;;;;;;20.00;14.20;;;;;;;0.79;78.55;96260.21;107931;1238;101382;-73
2023/10/19 04:39:00;;;;;;;21.60;14.00;;;;;;;0.80;78.49;96264.39;107745;1247;97087;-74
2023/10/19 04:41:27;;;;;;;15.40;11.40;;;;;;;0.81;78.41;96268.83;107980;1244;97845;-74
2023/10/19 04:43:54;;;;;;;16.50;11.00;;;;;;;0.80;78.36;96261.50;107911;1242;96561;-73
2023/10/19 04:46:21;;;;;;;13.10;10.10;;;;;;;0.81;78.27;96254.33;107937;1238;96651;-74
2023/10/19 04:48:47;;;;;;;18.90;11.90;;;;;;;0.78;78.35;96248.98;107958;1247;97381;-74
2023/10/19 04:51:13;;;;;;;19.00;12.30;;;;;;;0.76;78.44;96253.52;107848;1236;96646;-74
2023/10/19 04:53:40;;;;;;;17.40;11.80;;;;;;;0.77;78.48;96254.31;107952;1238;97070;-74
2023/10/19 04:56:09;;;;;;;22.30;13.30;;;;;;;0.78;78.66;96248.59;107978;1238;96655;-74
2023/10/19 04:58:36;;;;;;;24.50;14.50;;;;;;;0.76;78.55;96247.65;107945;1232;97004;-79
2023/10/19 05:01:03;;;;;;;23.60;15.70;;;;;;;0.78;78.68;96247.52;108006;1244;97141;-78
2023/10/19 05:03:30;;;;;;;24.10;15.30;;;;;;;0.80;78.71;96239.05;107921;1240;97263;-79
2023/10/19 05:05:57;;;;;;;28.30;16.50;;;;;;;0.82;78.73;96243.39;107844;1232;97846;-79
2023/10/19 05:08:25;;;;;;;21.60;13.80;;;;;;;0.83;78.61;96242.62;107985;1240;96592;-78
2023/10/19 05:10:54;;;;;;;23.20;14.30;;;;;;;0.78;78.59;96235.91;107985;1244;96561;-79
2023/10/19 05:13:25;;;;;;;22.30;14.40;;;;;;;0.78;78.70;96232.32;107710;1247;96735;-79
2023/10/19 05:15:53;;;;;;;21.00;13.20;;;;;;;0.76;78.67;96232.43;107915;1241;97243;-77
2023/10/19 05:18:20;;;;;;;21.90;14.70;;;;;;;0.73;78.65;96232.06;107678;1240;97081;-74
2023/10/19 05:20:46;;;;;;;30.00;18.50;;;;;;;0.74;78.76;96230.33;107597;1240;97289;-74
2023/10/19 05:23:13;;;;;;;31.20;20.40;;;;;;;0.73;78.73;96233.86;107888;1245;97482;-74
2023/10/19 05:25:40;;;;;;;27.60;20.00;;;;;;;0.68;78.71;96227.46;107815;1247;97480;-75
2023/10/19 05:28:07;;;;;;;30.20;21.90;;;;;;;0.68;78.81;96222.41;107988;1232;97533;-74
2023/10/19 05:30:35;;;;;;;37.90;23.30;;;;;;;0.69;78.87;96221.95;108040;1238;102039;-74
2023/10/19 05:33:02;;;;;;;37.80;25.60;;;;;;;0.72;78.86;96227.73;107764;1238;101155;-75
2023/10/19 05:35:29;;;;;;;31.80;22.30;;;;;;;0.75;78.80;96224.90;107720;1238;96575;-74
2023/10/19 05:37:56;;;;;;;30.00;19.90;;;;;;;0.77;78.76;96226.45;107710;1247;96619;-75
2023/10/19 05:40:29;;;;;;;25.10;18.60;;;;;;;0.77;78.73;96225.92;107643;1241;96775;-75
2023/10/19 05:42:57;;;;;;;23.10;17.70;;;;;;;0.79;78.82;96228.73;107946;1237;102397;-74
2023/10/19 05:45:24;;;;;;;28.80;18.90;;;;;;;0.82;78.92;96226.15;107942;1234;101525;-75
2023/10/19 05:47:50;;;;;;;27.50;17.70;;;;;;;0.88;79.05;96217.89;107780;1239;97210;-74
2023/10/19 05:50:16;;;;;;;30.70;19.50;;;;;;;0.89;78.96;96216.31;107939;1238;97397;-74
2023/10/19 05:52:44;;;;;;;40.90;24.10;;;;;;;0.88;78.98;96214.79;107981;1238;97189;-75
2023/10/19 05:55:10;;;;;;;40.40;27.20;;;;;;;0.88;79.03;96214.63;107937;1244;101223;-74
2023/10/19 05:57:40;;;;;;;40.70;28.30;;;;;;;0.87;79.15;96209.66;107918;1240;96892;-74
2023/10/19 06:00:13;;;;;;;49.90;30.80;;;;;;;0.88;79.26;96203.01;107924;1232;96566;-74
2023/10/19 06:02:49;;;;;;;46.50;29.40;;;;;;;0.92;79.43;96200.21;107987;1236;96699;-73
2023/10/19 06:05:16;;;;;;;50.50;26.10;;;;;;;1.00;79.62;96194.58;107927;1238;109926;-74
2023/10/19 06:07:47;;;;;;;37.90;23.80;;;;;;;1.09;79.71;96188.95;107838;1241;96763;-74
2023/10/19 06:10:20;;;;;;;32.90;22.80;;;;;;;1.16;79.77;96186.93;107754;1247;99780;-74
2023/10/19 06:12:51;;;;;;;38.40;25.70;;;;;;;1.22;79.81;96181.77;107994;1237;96552;-75
2023/10/19 06:15:20;;;;;;;40.60;23.80;;;;;;;1.28;79.83;96177.86;107702;1232;97076;-74
2023/10/19 06:17:49;;;;;;;38.60;22.60;;;;;;;1.35;79.92;96181.02;107995;1241;102406;-75
2023/10/19 06:20:24;;;;;;;34.50;24.50;;;;;;;1.43;79.91;96177.57;107956;1247;101731;-75
2023/10/19 06:22:56;;;;;;;39.60;26.80;;;;;;;1.51;79.91;96174.02;107944;1244;100023;-75
2023/10/19 06:25:24;;;;;;;36.70;26.30;;;;;;;1.59;79.92;96173.52;107756;1242;98026;-74
2023/10/19 06:27:52;;;;;;;34.60;23.60;;;;;;;1.67;80.01;96171.37;107761;1240;97048;-75
2023/10/19 06:30:21;;;;;;;28.10;18.30;;;;;;;1.75;80.08;96169.55;107933;1247;102037;-75
2023/10/19 06:32:50;;;;;;;29.30;18.80;;;;;;;1.85;80.16;96162.73;108037;1238;101251;-74
2023/10/19 06:35:20;;;;;;;26.90;18.60;;;;;;;1.93;80.05;96162.16;107832;1241;99588;-74
2023/10/19 06:37:48;;;;;;;30.00;17.10;;;;;;;1.96;80.07;96157.69;107911;1238;97495;-75
2023/10/19 06:40:16;;;;;;;26.90;16.80;;;;;;;1.98;80.06;96156.90;107951;1236;96650;-74
2023/10/19 06:42:45;;;;;;;32.20;20.00;;;;;;;2.02;80.13;96156.09;107986;1244;102126;-74
2023/10/19 06:45:14;;;;;;;37.70;24.90;;;;;;;2.06;80.14;96153.27;107459;1240;101121;-74
2023/10/19 06:47:45;;;;;;;45.10;26.70;;;;;;;2.09;80.03;96153.21;107994;1238;99027;-75
2023/10/19 06:50:15;;;;;;;40.80;26.70;;;;;;;2.11;79.99;96144.07;107891;1232;96579;-75
2023/10/19 06:52:43;;;;;;;40.00;26.90;;;;;;;2.14;80.11;96139.60;107784;1247;97136;-75
2023/10/19 06:55:13;;;;;;;38.20;24.80;;;;;;;2.19;80.23;96134.02;107777;1240;102154;-75
2023/10/19 06:57:48;;;;;;;36.90;22.50;;;;;;;2.27;80.31;96124.23;107914;1238;101365;-74
2023/10/19 07:00:19;;;;;;;38.20;20.70;;;;;;;2.36;80.49;96113.98;107939;1244;100013;-75
2023/10/19 07:03:00;;;;;;;37.00;21.10;;;;;;;2.45;80.66;96111.20;107724;1241;96745;-74
2023/10/19 07:05:29;;;;;;;32.80;20.40;;;;;;;2.55;80.61;96105.48;107959;1232;96772;-75
2023/10/19 07:07:59;;;;;;;39.30;21.70;;;;;;;2.66;80.74;96101.44;107973;1244;102190;-75
2023/10/19 07:10:27;;;;;;;34.70;20.20;;;;;;;2.77;80.62;96098.29;107995;1244;101661;-75
2023/10/19 07:12:55;;;;;;;26.20;18.00;;;;;;;2.89;80.58;96099.31;107923;1240;109354;-81
2023/10/19 07:15:23;;;;;;;37.90;24.10;;;;;;;3.00;80.53;96095.52;107939;1244;97469;-81
2023/10/19 07:17:52;;;;;;;36.50;27.40;;;;;;;3.14;80.63;96095.27;107965;1237;97038;-81
2023/10/19 07:20:25;;;;;;;41.70;30.60;;;;;;;3.31;80.67;96098.45;107918;1240;101853;-81
2023/10/19 07:22:52;;;;;;;39.40;28.80;;;;;;;3.48;80.53;96098.80;107660;1241;101677;-81
2023/10/19 07:29:00;;;;;;;88.90;62.50;;;;;;;3.90;80.60;96084.86;107348;1249;97845;-79
2023/10/19 07:31:27;;;;;;;133.80;89.80;;;;;;;4.11;80.42;96075.33;107151;1246;97142;-74
2023/10/19 07:33:57;;;;;;;120.60;71.50;;;;;;;4.29;80.13;96059.57;107615;1247;96696;-73
2023/10/19 07:36:24;;;;;;;49.70;30.30;;;;;;;4.47;79.87;96056.48;107351;1236;101578;-73
2023/10/19 07:38:51;;;;;;;36.30;22.90;;;;;;;4.64;79.89;96055.83;107655;1239;99944;-73
2023/10/19 07:41:18;;;;;;;31.40;20.60;;;;;;;4.79;79.83;96056.88;107655;1243;97804;-73
2023/10/19 07:43:44;;;;;;;31.40;18.80;;;;;;;4.90;79.78;96054.81;107671;1248;96846;-73
2023/10/19 07:46:11;;;;;;;27.20;17.50;;;;;;;5.03;79.77;96052.76;107853;1239;97301;-73
2023/10/19 07:48:38;;;;;;;23.70;14.70;;;;;;;5.17;79.52;96050.49;107326;1246;100170;-73
2023/10/19 07:51:04;;;;;;;22.00;13.90;;;;;;;5.31;79.33;96048.56;107506;1239;96843;-78
2023/10/19 07:53:31;;;;;;;19.10;12.90;;;;;;;5.49;79.58;96045.15;107648;1239;96795;-78
2023/10/19 07:55:57;;;;;;;17.70;12.70;;;;;;;5.73;79.30;96034.29;108024;1236;96571;-79
2023/10/19 07:58:23;;;;;;;17.20;11.00;;;;;;;5.91;79.17;96029.63;107912;1247;99925;-78
2023/10/19 08:00:49;;;;;;;14.80;11.10;;;;;;;6.09;78.89;96021.23;107880;1247;96561;-80
2023/10/19 08:03:16;;;;;;;15.00;9.50;;;;;;;6.30;78.31;96015.23;107905;1232;97062;-79
2023/10/19 08:05:44;;;;;;;15.40;9.60;;;;;;;6.50;77.63;96008.11;107913;1237;96574;-79
2023/10/19 08:08:12;;;;;;;18.20;9.80;;;;;;;6.68;77.37;96012.71;107990;1232;96667;-80
2023/10/19 08:10:39;;;;;;;17.10;10.00;;;;;;;6.89;77.21;96012.59;107746;1244;96578;-74
2023/10/19 08:13:05;;;;;;;16.10;9.30;;;;;;;7.10;76.75;96011.35;107869;1237;97089;-75
2023/10/19 08:15:31;;;;;;;17.70;9.60;;;;;;;7.26;76.25;96008.18;107844;1236;102112;-75
2023/10/19 08:17:58;;;;;;;16.30;9.10;;;;;;;7.40;75.80;96008.10;107884;1245;96544;-76
2023/10/19 08:20:30;;;;;;;19.70;10.90;;;;;;;7.50;75.44;96010.04;107870;1246;96985;-75
2023/10/19 08:22:58;;;;;;;15.00;9.80;;;;;;;7.55;75.40;96001.55;107865;1237;96568;-75
2023/10/19 08:25:27;;;;;;;14.10;8.90;;;;;;;7.60;75.24;95991.90;107706;1244;97149;-75
2023/10/19 08:27:56;;;;;;;17.70;10.90;;;;;;;7.66;75.36;95990.09;107356;1232;102238;-75
2023/10/19 08:30:23;;;;;;;13.50;9.00;;;;;;;7.71;74.88;95985.56;107498;1239;99926;-82
2023/10/19 08:32:51;;;;;;;15.10;9.20;;;;;;;7.79;74.65;95989.41;107883;1245;96552;-75
2023/10/19 08:35:24;;;;;;;16.00;9.30;;;;;;;7.88;74.32;95982.66;108014;1236;97762;-75
2023/10/19 08:37:51;;;;;;;15.40;9.40;;;;;;;7.97;74.16;95973.23;107736;1240;97113;-75
2023/10/19 08:40:18;;;;;;;15.40;9.30;;;;;;;8.12;74.22;95977.42;107681;1241;96649;-75
2023/10/19 08:42:46;;;;;;;15.30;9.90;;;;;;;8.30;74.02;95976.88;107951;1246;97708;-75
2023/10/19 08:45:14;;;;;;;16.20;9.80;;;;;;;8.43;73.43;95975.59;107704;1240;96632;-75
2023/10/19 08:47:56;;;;;;;15.50;10.00;;;;;;;8.52;72.95;95959.84;107974;1240;97363;-75
2023/10/19 08:50:34;;;;;;;14.40;9.90;;;;;;;8.62;73.23;95942.42;107987;1238;96813;-75
2023/10/19 08:53:08;;;;;;;20.00;10.70;;;;;;;8.72;73.29;95940.11;107794;1242;102372;-75
2023/10/19 08:55:34;;;;;;;15.20;10.70;;;;;;;8.85;73.26;95940.88;107715;1240;99828;-75
2023/10/19 08:58:03;;;;;;;18.10;12.50;;;;;;;8.94;72.80;95935.21;107930;1245;97099;-76
2023/10/19 09:00:46;;;;;;;20.60;11.50;;;;;;;9.04;72.78;95931.43;107946;1232;96772;-75
2023/10/19 09:03:14;;;;;;;18.20;12.40;;;;;;;9.12;72.81;95934.46;107972;1236;96995;-75
2023/10/19 09:05:41;;;;;;;19.60;11.60;;;;;;;9.21;72.71;95935.40;107793;1236;96979;-76
2023/10/19 09:08:09;;;;;;;19.60;12.50;;;;;;;9.30;72.26;95930.52;108034;1236;96641;-80
2023/10/19 09:10:36;;;;;;;17.10;11.40;;;;;;;9.34;71.93;95919.18;107867;1232;99872;-80
2023/10/19 09:13:08;;;;;;;18.70;11.30;;;;;;;9.38;71.59;95914.54;107825;1237;97480;-79
2023/10/19 09:15:37;;;;;;;15.30;9.50;;;;;;;9.44;70.95;95914.90;107498;1235;97102;-79
2023/10/19 09:18:16;;;;;;;14.90;10.50;;;;;;;9.50;70.32;95912.05;107895;1236;101226;-79
2023/10/19 09:20:52;;;;;;;18.30;11.60;;;;;;;9.55;70.14;95916.02;107893;1236;101255;-80
2023/10/19 09:23:23;;;;;;;16.20;11.50;;;;;;;9.59;69.95;95919.45;107913;1246;99854;-80
2023/10/19 09:25:52;;;;;;;14.70;10.40;;;;;;;9.61;70.17;95915.49;107706;1240;96709;-79
2023/10/19 09:28:20;;;;;;;14.70;10.00;;;;;;;9.59;69.73;95911.58;107862;1232;98001;-80
2023/10/19 09:30:46;;;;;;;16.60;10.10;;;;;;;9.60;69.84;95912.19;107946;1236;97467;-75
2023/10/19 09:33:17;;;;;;;14.60;9.30;;;;;;;9.61;69.82;95908.65;107558;1242;97806;-74
2023/10/19 09:35:52;;;;;;;12.90;9.40;;;;;;;9.66;69.71;95913.43;107784;1247;98817;-75
2023/10/19 09:38:21;;;;;;;14.30;9.80;;;;;;;9.69;70.02;95915.26;107747;1247;96805;-75
2023/10/19 09:40:54;;;;;;;15.10;9.70;;;;;;;9.73;69.97;95918.73;107493;1245;97053;-75
2023/10/19 09:43:33;;;;;;;16.00;10.40;;;;;;;9.79;69.91;95919.10;107796;1241;102096;-74
2023/10/19 09:46:03;;;;;;;13.90;10.70;;;;;;;9.84;69.76;95908.46;107929;1245;101398;-75
2023/10/19 09:48:35;;;;;;;13.80;9.60;;;;;;;9.87;69.65;95909.55;107765;1235;99960;-75
2023/10/19 09:51:03;;;;;;;20.60;10.20;;;;;;;9.92;69.60;95910.01;107965;1236;97486;-75
2023/10/19 09:53:31;;;;;;;16.00;10.40;;;;;;;9.95;69.63;95903.38;107960;1232;97070;-74
2023/10/19 09:55:59;;;;;;;18.10;10.30;;;;;;;9.98;69.76;95909.86;107410;1241;100662;-75
2023/10/19 09:58:37;;;;;;;16.00;11.10;;;;;;;10.01;69.43;95909.21;107943;1232;100333;-74
2023/10/19 10:01:11;;;;;;;16.20;10.70;;;;;;;10.03;69.69;95909.66;107900;1238;99077;-75
2023/10/19 10:03:51;;;;;;;14.10;10.40;;;;;;;10.01;69.67;95905.69;107925;1236;97158;-75
2023/10/19 10:06:28;;;;;;;14.70;10.50;;;;;;;9.99;69.82;95898.29;107898;1240;97819;-75
2023/10/19 10:08:55;;;;;;;16.60;11.20;;;;;;;9.99;70.06;95897.04;107795;1239;102472;-75
2023/10/19 10:11:26;;;;;;;16.50;11.30;;;;;;;9.99;70.29;95890.69;107777;1232;97138;-75
2023/10/19 10:13:55;;;;;;;17.60;12.20;;;;;;;10.01;70.38;95889.05;107310;1234;98590;-76
2023/10/19 10:16:29;;;;;;;18.00;12.70;;;;;;;10.02;70.61;95884.09;107480;1240;98121;-76
2023/10/19 10:18:59;;;;;;;18.90;12.60;;;;;;;10.03;70.80;95881.13;107809;1236;96552;-76
2023/10/19 10:21:27;;;;;;;18.40;12.10;;;;;;;10.04;70.87;95876.95;107266;1232;101926;-76
2023/10/19 10:24:02;;;;;;;19.40;14.10;;;;;;;10.07;71.11;95873.23;107927;1238;101401;-75
2023/10/19 10:26:36;;;;;;;22.20;14.90;;;;;;;10.10;71.30;95868.76;107883;1237;99700;-76
2023/10/19 10:29:23;;;;;;;26.30;16.10;;;;;;;10.13;71.28;95861.90;107791;1232;96778;-76
2023/10/19 10:31:51;;;;;;;24.00;15.60;;;;;;;10.15;71.22;95860.14;107714;1241;97003;-76
2023/10/19 10:34:36;;;;;;;24.40;15.90;;;;;;;10.16;71.09;95856.05;107929;1238;96481;-76
2023/10/19 10:37:05;;;;;;;27.00;15.60;;;;;;;10.19;71.09;95855.59;107889;1232;100180;-77
2023/10/19 10:39:32;;;;;;;24.30;14.70;;;;;;;10.19;70.99;95849.23;107980;1246;99702;-76
2023/10/19 10:42:00;;;;;;;21.60;13.30;;;;;;;10.21;70.93;95842.52;107758;1239;97879;-76
2023/10/19 10:44:44;;;;;;;23.60;13.40;;;;;;;10.23;70.96;95843.20;108072;1238;96574;-79
2023/10/19 10:47:21;;;;;;;24.80;13.90;;;;;;;10.27;71.16;95838.77;107955;1247;101062;-76
2023/10/19 10:49:55;;;;;;;21.90;13.70;;;;;;;10.29;71.61;95831.80;107878;1238;101185;-76
2023/10/19 10:52:37;;;;;;;21.40;14.50;;;;;;;10.30;71.63;95824.25;107946;1245;99751;-76
2023/10/19 10:55:13;;;;;;;24.00;14.60;;;;;;;10.30;71.43;95818.48;107495;1233;96734;-76
2023/10/19 10:57:41;;;;;;;19.60;13.90;;;;;;;10.33;71.31;95814.98;107806;1239;97128;-75
2023/10/19 11:00:15;;;;;;;21.70;14.60;;;;;;;10.37;71.04;95815.32;107743;1239;102047;-75
2023/10/19 11:02:46;;;;;;;24.50;13.90;;;;;;;10.41;70.73;95811.09;107990;1238;101350;-75
2023/10/19 11:05:16;;;;;;;21.00;13.30;;;;;;;10.44;70.68;95805.63;107777;1239;99769;-75
2023/10/19 11:08:13;;;;;;;19.80;13.80;;;;;;;10.44;70.90;95798.90;107849;1233;97202;-75
2023/10/19 11:10:42;;;;;;;19.60;12.70;;;;;;;10.45;71.02;95796.05;108004;1238;97034;-75
2023/10/19 11:13:10;;;;;;;22.50;14.30;;;;;;;10.46;71.25;95791.96;107518;1241;102152;-75
2023/10/19 11:15:39;;;;;;;22.40;14.10;;;;;;;10.46;71.26;95786.69;107962;1247;101467;-75
2023/10/19 11:18:07;;;;;;;21.70;14.60;;;;;;;10.48;71.64;95781.85;107879;1236;99844;-76
2023/10/19 11:20:34;;;;;;;19.30;14.00;;;;;;;10.51;71.92;95780.46;107935;1234;96526;-75
2023/10/19 11:23:00;;;;;;;23.10;14.60;;;;;;;10.53;71.88;95777.62;107979;1236;96536;-81
2023/10/19 11:25:28;;;;;;;20.50;14.90;;;;;;;10.55;71.56;95768.80;107950;1236;97800;-75
2023/10/19 11:27:57;;;;;;;19.80;15.30;;;;;;;10.59;71.63;95766.45;107966;1236;97786;-76
2023/10/19 11:30:28;;;;;;;23.90;16.40;;;;;;;10.62;71.67;95757.21;107939;1247;97010;-76
2023/10/19 11:32:57;;;;;;;23.30;16.50;;;;;;;10.63;71.33;95747.39;107932;1236;96785;-76
2023/10/19 11:35:29;;;;;;;25.40;17.10;;;;;;;10.66;71.24;95740.52;107909;1236;96983;-76